createdAt,value
2016-06-19T00:00:54.562Z,1003.34
2016-06-19T00:01:54.596Z,1003.37
2016-06-19T00:02:54.631Z,1003.37
2016-06-19T00:03:54.681Z,1003.36
2016-06-19T00:04:54.717Z,1003.3
2016-06-19T00:05:54.751Z,1003.34
2016-06-19T00:06:54.802Z,1003.35
2016-06-19T00:07:54.836Z,1003.35
2016-06-19T00:08:54.886Z,1003.36
2016-06-19T00:09:54.922Z,1003.33
2016-06-19T00:10:54.955Z,1003.37
2016-06-19T00:11:55.006Z,1003.35
2016-06-19T00:12:55.041Z,1003.38
2016-06-19T00:13:55.091Z,1003.35
2016-06-19T00:14:55.127Z,1003.34
2016-06-19T00:15:55.161Z,1003.31
2016-06-19T00:16:55.242Z,1003.31
2016-06-19T00:17:55.246Z,1003.3
2016-06-19T00:18:55.296Z,1003.31
2016-06-19T00:19:55.331Z,1003.38
2016-06-19T00:20:55.382Z,1003.35
2016-06-19T00:21:55.416Z,1003.4
2016-06-19T00:22:55.450Z,1003.4
2016-06-19T00:23:55.500Z,1003.42
2016-06-19T00:24:55.536Z,1003.43
2016-06-19T00:25:55.571Z,1003.41
2016-06-19T00:26:55.621Z,1003.43
2016-06-19T00:27:55.672Z,1003.42
2016-06-19T00:28:55.705Z,1003.43
2016-06-19T00:29:55.740Z,1003.44
2016-06-19T00:30:55.775Z,1003.44
2016-06-19T00:31:55.825Z,1003.48
2016-06-19T00:32:55.876Z,1003.5
2016-06-19T00:33:55.895Z,1003.49
2016-06-19T00:34:55.946Z,1003.49
2016-06-19T00:35:55.980Z,1003.5
2016-06-19T00:36:56.031Z,1003.51
2016-06-19T00:37:56.065Z,1003.52
2016-06-19T00:38:56.130Z,1003.48
2016-06-19T00:39:56.150Z,1003.54
2016-06-19T00:40:56.184Z,1003.52
2016-06-19T00:41:56.235Z,1003.59
2016-06-19T00:42:56.270Z,1003.6
2016-06-19T00:43:56.305Z,1003.57
2016-06-19T00:44:56.356Z,1003.55
2016-06-19T00:45:56.405Z,1003.59
2016-06-19T00:46:56.440Z,1003.6
2016-06-19T00:47:56.474Z,1003.58
2016-06-19T00:48:56.509Z,1003.64
2016-06-19T00:49:56.560Z,1003.65
2016-06-19T00:50:56.594Z,1003.67
2016-06-19T00:51:56.645Z,1003.69
2016-06-19T00:52:56.679Z,1003.7
2016-06-19T00:53:56.745Z,1003.71
2016-06-19T00:54:56.748Z,1003.69
2016-06-19T00:55:56.799Z,1003.72
2016-06-19T00:56:56.834Z,1003.73
2016-06-19T00:57:56.884Z,1003.74
2016-06-19T00:58:56.919Z,1003.73
2016-06-19T00:59:56.953Z,1003.74
2016-06-19T01:00:57.004Z,1003.76
2016-06-19T01:01:57.039Z,1003.76
2016-06-19T01:02:57.089Z,1003.75
2016-06-19T01:03:57.124Z,1003.8
2016-06-19T01:04:57.174Z,1003.81
2016-06-19T01:05:57.209Z,1003.79
2016-06-19T01:06:57.243Z,1003.79
2016-06-19T01:07:57.277Z,1003.83
2016-06-19T01:08:57.328Z,1003.81
2016-06-19T01:09:57.362Z,1003.78
2016-06-19T01:10:57.413Z,1003.74
2016-06-19T01:11:57.449Z,1003.74
2016-06-19T01:12:57.514Z,1003.78
2016-06-19T01:13:57.534Z,1003.77
2016-06-19T01:14:57.584Z,1003.8
2016-06-19T01:15:57.619Z,1003.81
2016-06-19T01:16:57.653Z,1003.81
2016-06-19T01:17:57.688Z,1003.84
2016-06-19T01:18:57.738Z,1003.86
2016-06-19T01:19:57.772Z,1003.87
2016-06-19T01:20:57.823Z,1003.94
2016-06-19T01:21:57.858Z,1003.9
2016-06-19T01:22:57.892Z,1003.87
2016-06-19T01:23:57.943Z,1003.89
2016-06-19T01:24:57.978Z,1003.88
2016-06-19T01:25:58.028Z,1003.85
2016-06-19T01:26:58.094Z,1003.88
2016-06-19T01:27:58.097Z,1003.82
2016-06-19T01:28:58.147Z,1003.79
2016-06-19T01:29:58.182Z,1003.83
2016-06-19T01:30:58.218Z,1003.8
2016-06-19T01:31:58.268Z,1003.83
2016-06-19T01:32:58.302Z,1003.84
2016-06-19T01:33:58.337Z,1003.86
2016-06-19T01:34:58.387Z,1003.86
2016-06-19T01:35:58.422Z,1003.87
2016-06-19T01:36:58.472Z,1003.86
2016-06-19T01:37:58.538Z,1003.86
2016-06-19T01:38:58.542Z,1003.8
2016-06-19T01:39:58.592Z,1003.83
2016-06-19T01:40:58.627Z,1003.81
2016-06-19T01:41:58.661Z,1003.81
2016-06-19T01:42:58.712Z,1003.76
2016-06-19T01:43:58.746Z,1003.83
2016-06-19T01:44:58.797Z,1003.84
2016-06-19T01:45:58.831Z,1003.9
2016-06-19T01:46:58.865Z,1003.9
2016-06-19T01:47:58.901Z,1003.94
2016-06-19T01:48:58.983Z,1003.97
2016-06-19T01:49:58.986Z,1003.95
2016-06-19T01:50:59.036Z,1003.96
2016-06-19T01:51:59.071Z,1003.95
2016-06-19T01:52:59.106Z,1003.92
2016-06-19T01:53:59.156Z,1003.91
2016-06-19T01:54:59.194Z,1003.91
2016-06-19T01:55:59.234Z,1003.93
2016-06-19T01:56:59.287Z,1003.92
2016-06-19T01:57:59.326Z,1003.95
2016-06-19T01:58:59.363Z,1003.91
2016-06-19T01:59:59.446Z,1003.92
2016-06-19T02:00:59.451Z,1003.93
2016-06-19T02:01:59.502Z,1003.93
2016-06-19T02:02:59.539Z,1003.94
2016-06-19T02:03:59.574Z,1003.95
2016-06-19T02:04:59.610Z,1003.96
2016-06-19T02:05:59.661Z,1003.96
2016-06-19T02:06:59.696Z,1003.97
2016-06-19T02:07:59.747Z,1003.98
2016-06-19T02:08:59.782Z,1003.96
2016-06-19T02:09:59.816Z,1003.99
2016-06-19T02:10:59.867Z,1003.98
2016-06-19T02:11:59.901Z,1003.97
2016-06-19T02:12:59.951Z,1004.02
2016-06-19T02:13:59.986Z,1004.05
2016-06-19T02:15:00.022Z,1004.06
2016-06-19T02:16:00.055Z,1004.09
2016-06-19T02:17:00.106Z,1004.12
2016-06-19T02:18:00.141Z,1004.08
2016-06-19T02:19:00.192Z,1004.07
2016-06-19T02:20:00.225Z,1004.08
2016-06-19T02:21:00.260Z,1004.06
2016-06-19T02:22:00.311Z,1004.09
2016-06-19T02:23:00.346Z,1004.12
2016-06-19T02:24:00.395Z,1004.15
2016-06-19T02:25:00.431Z,1004.15
2016-06-19T02:26:00.497Z,1004.16
2016-06-19T02:27:00.516Z,1004.11
2016-06-19T02:28:00.550Z,1004.15
2016-06-19T02:29:00.585Z,1004.12
2016-06-19T02:30:00.635Z,1004.14
2016-06-19T02:31:00.670Z,1004.14
2016-06-19T02:32:00.705Z,1004.16
2016-06-19T02:33:00.756Z,1004.16
2016-06-19T02:34:00.790Z,1004.2
2016-06-19T02:35:00.841Z,1004.21
2016-06-19T02:36:00.875Z,1004.21
2016-06-19T02:37:00.909Z,1004.22
2016-06-19T02:38:00.960Z,1004.21
2016-06-19T02:39:00.994Z,1004.23
2016-06-19T02:40:01.029Z,1004.2
2016-06-19T02:41:01.079Z,1004.19
2016-06-19T02:42:01.115Z,1004.18
2016-06-19T02:43:01.149Z,1004.18
2016-06-19T02:44:01.200Z,1004.1
2016-06-19T02:45:01.234Z,1004.11
2016-06-19T02:46:01.268Z,1004.1
2016-06-19T02:47:01.319Z,1004.11
2016-06-19T02:48:01.370Z,1004.11
2016-06-19T02:49:01.419Z,1004.13
2016-06-19T02:50:01.439Z,1004.16
2016-06-19T02:51:01.474Z,1004.14
2016-06-19T02:52:01.509Z,1004.17
2016-06-19T02:53:01.558Z,1004.16
2016-06-19T02:54:01.593Z,1004.13
2016-06-19T02:55:01.644Z,1004.15
2016-06-19T02:56:01.694Z,1004.18
2016-06-19T02:57:01.713Z,1004.19
2016-06-19T02:58:01.763Z,1004.18
2016-06-19T02:59:01.799Z,1004.19
2016-06-19T03:00:01.880Z,1004.22
2016-06-19T03:01:01.883Z,1004.22
2016-06-19T03:02:01.918Z,1004.23
2016-06-19T03:03:01.952Z,1004.22
2016-06-19T03:04:02.034Z,1004.24
2016-06-19T03:05:02.037Z,1004.23
2016-06-19T03:06:02.073Z,1004.23
2016-06-19T03:07:02.123Z,1004.26
2016-06-19T03:08:02.189Z,1004.24
2016-06-19T03:09:02.208Z,1004.25
2016-06-19T03:10:02.242Z,1004.23
2016-06-19T03:11:02.277Z,1004.27
2016-06-19T03:12:02.327Z,1004.26
2016-06-19T03:13:02.362Z,1004.26
2016-06-19T03:14:02.413Z,1004.26
2016-06-19T03:15:02.447Z,1004.29
2016-06-19T03:16:02.513Z,1004.29
2016-06-19T03:17:02.533Z,1004.3
2016-06-19T03:18:02.568Z,1004.31
2016-06-19T03:19:02.601Z,1004.33
2016-06-19T03:20:02.652Z,1004.33
2016-06-19T03:21:02.687Z,1004.38
2016-06-19T03:22:02.737Z,1004.38
2016-06-19T03:23:02.771Z,1004.39
2016-06-19T03:24:02.807Z,1004.38
2016-06-19T03:25:02.857Z,1004.42
2016-06-19T03:26:02.892Z,1004.43
2016-06-19T03:27:02.926Z,1004.43
2016-06-19T03:28:02.977Z,1004.43
2016-06-19T03:29:03.011Z,1004.48
2016-06-19T03:30:03.046Z,1004.48
2016-06-19T03:31:03.096Z,1004.46
2016-06-19T03:32:03.130Z,1004.51
2016-06-19T03:33:03.166Z,1004.54
2016-06-19T03:34:03.217Z,1004.55
2016-06-19T03:35:03.251Z,1004.52
2016-06-19T03:36:03.301Z,1004.53
2016-06-19T03:37:03.336Z,1004.57
2016-06-19T03:38:03.370Z,1004.57
2016-06-19T03:39:03.421Z,1004.6
2016-06-19T03:40:03.455Z,1004.59
2016-06-19T03:41:03.506Z,1004.64
2016-06-19T03:42:03.540Z,1004.63
2016-06-19T03:43:03.607Z,1004.68
2016-06-19T03:44:03.626Z,1004.68
2016-06-19T03:45:03.660Z,1004.71
2016-06-19T03:46:03.695Z,1004.75
2016-06-19T03:47:03.746Z,1004.77
2016-06-19T03:48:03.779Z,1004.78
2016-06-19T03:49:03.815Z,1004.78
2016-06-19T03:50:03.865Z,1004.82
2016-06-19T03:51:03.931Z,1004.81
2016-06-19T03:52:03.949Z,1004.8
2016-06-19T03:53:03.986Z,1004.81
2016-06-19T03:54:04.020Z,1004.85
2016-06-19T03:55:04.070Z,1004.89
2016-06-19T03:56:04.105Z,1004.88
2016-06-19T03:57:04.139Z,1004.9
2016-06-19T03:58:04.190Z,1004.91
2016-06-19T03:59:04.271Z,1004.92
2016-06-19T04:00:04.260Z,1004.94
2016-06-19T04:01:04.310Z,1005
2016-06-19T04:02:04.344Z,1005
2016-06-19T04:03:04.395Z,1005
2016-06-19T04:04:04.429Z,1004.99
2016-06-19T04:05:04.480Z,1005.03
2016-06-19T04:06:04.514Z,1005.08
2016-06-19T04:07:04.549Z,1005.05
2016-06-19T04:08:04.599Z,1005.08
2016-06-19T04:09:04.634Z,1005.09
2016-06-19T04:10:04.669Z,1005.16
2016-06-19T04:11:04.720Z,1005.2
2016-06-19T04:12:04.756Z,1005.24
2016-06-19T04:13:04.809Z,1005.23
2016-06-19T04:14:04.844Z,1005.26
2016-06-19T04:15:04.911Z,1005.29
2016-06-19T04:16:04.932Z,1005.31
2016-06-19T04:17:04.967Z,1005.31
2016-06-19T04:18:05.019Z,1005.32
2016-06-19T04:19:05.053Z,1005.3
2016-06-19T04:20:05.090Z,1005.34
2016-06-19T04:21:05.141Z,1005.38
2016-06-19T04:22:05.175Z,1005.38
2016-06-19T04:23:05.240Z,1005.44
2016-06-19T04:24:05.260Z,1005.46
2016-06-19T04:25:05.311Z,1005.45
2016-06-19T04:26:05.345Z,1005.45
2016-06-19T04:27:05.411Z,1005.46
2016-06-19T04:28:05.430Z,1005.48
2016-06-19T04:29:05.464Z,1005.49
2016-06-19T04:30:05.500Z,1005.49
2016-06-19T04:31:05.565Z,1005.48
2016-06-19T04:32:05.584Z,1005.49
2016-06-19T04:33:05.619Z,1005.5
2016-06-19T04:34:05.670Z,1005.5
2016-06-19T04:35:05.720Z,1005.49
2016-06-19T04:36:05.754Z,1005.48
2016-06-19T04:37:05.789Z,1005.45
2016-06-19T04:38:05.840Z,1005.45
2016-06-19T04:39:05.889Z,1005.48
2016-06-19T04:40:05.909Z,1005.47
2016-06-19T04:41:05.960Z,1005.52
2016-06-19T04:42:05.994Z,1005.54
2016-06-19T04:43:06.076Z,1005.58
2016-06-19T04:44:06.080Z,1005.53
2016-06-19T04:45:06.113Z,1005.6
2016-06-19T04:46:06.164Z,1005.56
2016-06-19T04:47:06.199Z,1005.55
2016-06-19T04:48:06.249Z,1005.56
2016-06-19T04:49:06.283Z,1005.58
2016-06-19T04:50:06.319Z,1005.55
2016-06-19T04:51:06.369Z,1005.56
2016-06-19T04:52:06.404Z,1005.58
2016-06-19T04:53:06.454Z,1005.63
2016-06-19T04:54:06.504Z,1005.63
2016-06-19T04:55:06.554Z,1005.62
2016-06-19T04:56:06.574Z,1005.61
2016-06-19T04:57:06.608Z,1005.63
2016-06-19T04:58:06.674Z,1005.68
2016-06-19T04:59:06.693Z,1005.69
2016-06-19T05:00:06.743Z,1005.69
2016-06-19T05:01:06.794Z,1005.66
2016-06-19T05:02:06.814Z,1005.69
2016-06-19T05:03:06.864Z,1005.69
2016-06-19T05:04:06.898Z,1005.72
2016-06-19T05:05:06.949Z,1005.72
2016-06-19T05:06:06.983Z,1005.73
2016-06-19T05:07:07.034Z,1005.76
2016-06-19T05:08:07.068Z,1005.75
2016-06-19T05:09:07.102Z,1005.77
2016-06-19T05:10:07.153Z,1005.76
2016-06-19T05:11:07.189Z,1005.77
2016-06-19T05:12:07.238Z,1005.77
2016-06-19T05:13:07.273Z,1005.78
2016-06-19T05:14:07.324Z,1005.77
2016-06-19T05:15:07.358Z,1005.75
2016-06-19T05:16:07.393Z,1005.74
2016-06-19T05:17:07.443Z,1005.79
2016-06-19T05:18:07.478Z,1005.81
2016-06-19T05:19:07.528Z,1005.79
2016-06-19T05:20:07.562Z,1005.76
2016-06-19T05:21:07.613Z,1005.78
2016-06-19T05:22:07.648Z,1005.81
2016-06-19T05:23:07.683Z,1005.81
2016-06-19T05:24:07.734Z,1005.83
2016-06-19T05:25:07.768Z,1005.81
2016-06-19T05:26:07.818Z,1005.84
2016-06-19T05:27:07.853Z,1005.87
2016-06-19T05:28:07.934Z,1005.8
2016-06-19T05:29:07.938Z,1005.85
2016-06-19T05:30:07.972Z,1005.87
2016-06-19T05:31:08.022Z,1005.9
2016-06-19T05:32:08.058Z,1005.91
2016-06-19T05:33:08.107Z,1005.92
2016-06-19T05:34:08.143Z,1005.93
2016-06-19T05:35:08.193Z,1005.98
2016-06-19T05:36:08.228Z,1006.03
2016-06-19T05:37:08.263Z,1006.03
2016-06-19T05:38:08.312Z,1006.08
2016-06-19T05:39:08.394Z,1006.04
2016-06-19T05:40:08.398Z,1006.08
2016-06-19T05:41:08.433Z,1006.13
2016-06-19T05:42:08.466Z,1006.05
2016-06-19T05:43:08.518Z,1006.13
2016-06-19T05:44:08.567Z,1006.02
2016-06-19T05:45:08.602Z,1006.02
2016-06-19T05:46:08.637Z,1006.01
2016-06-19T05:47:08.688Z,1006.08
2016-06-19T05:48:08.738Z,1006.05
2016-06-19T05:49:08.787Z,1006.06
2016-06-19T05:50:08.823Z,1006.12
2016-06-19T05:51:08.842Z,1006.12
2016-06-19T05:52:08.893Z,1006.13
2016-06-19T05:53:08.926Z,1006.14
2016-06-19T05:54:08.963Z,1006.18
2016-06-19T05:55:09.011Z,1006.13
2016-06-19T05:56:09.047Z,1006.18
2016-06-19T05:57:09.098Z,1006.17
2016-06-19T05:58:09.132Z,1006.17
2016-06-19T05:59:09.167Z,1006.14
2016-06-19T06:00:09.216Z,1006.18
2016-06-19T06:01:09.251Z,1006.19
2016-06-19T06:02:09.302Z,1006.17
2016-06-19T06:03:09.336Z,1006.19
2016-06-19T06:04:09.386Z,1006.22
2016-06-19T06:05:09.421Z,1006.26
2016-06-19T06:06:09.471Z,1006.23
2016-06-19T06:07:09.507Z,1006.29
2016-06-19T06:08:09.542Z,1006.27
2016-06-19T06:09:09.592Z,1006.29
2016-06-19T06:10:09.626Z,1006.31
2016-06-19T06:11:09.677Z,1006.28
2016-06-19T06:12:09.743Z,1006.31
2016-06-19T06:13:09.762Z,1006.3
2016-06-19T06:14:09.797Z,1006.31
2016-06-19T06:15:09.831Z,1006.32
2016-06-19T06:16:09.881Z,1006.29
2016-06-19T06:17:09.917Z,1006.29
2016-06-19T06:18:09.966Z,1006.29
2016-06-19T06:19:10.001Z,1006.31
2016-06-19T06:20:10.052Z,1006.29
2016-06-19T06:21:10.086Z,1006.34
2016-06-19T06:22:10.121Z,1006.33
2016-06-19T06:23:10.171Z,1006.33
2016-06-19T06:24:10.206Z,1006.36
2016-06-19T06:25:10.257Z,1006.4
2016-06-19T06:26:10.290Z,1006.35
2016-06-19T06:27:10.341Z,1006.36
2016-06-19T06:28:10.429Z,1006.35
2016-06-19T06:29:10.438Z,1006.32
2016-06-19T06:30:10.526Z,1006.33
2016-06-19T06:31:10.535Z,1006.36
2016-06-19T06:32:10.575Z,1006.41
2016-06-19T06:33:10.628Z,1006.45
2016-06-19T06:34:10.665Z,1006.43
2016-06-19T06:35:10.702Z,1006.42
2016-06-19T06:36:10.755Z,1006.45
2016-06-19T06:37:10.791Z,1006.42
2016-06-19T06:38:10.842Z,1006.46
2016-06-19T06:39:10.878Z,1006.43
2016-06-19T06:40:10.929Z,1006.46
2016-06-19T06:41:10.980Z,1006.5
2016-06-19T06:42:11.016Z,1006.47
2016-06-19T06:43:11.050Z,1006.53
2016-06-19T06:44:11.100Z,1006.47
2016-06-19T06:45:11.150Z,1006.49
2016-06-19T06:46:11.187Z,1006.48
2016-06-19T06:47:11.221Z,1006.48
2016-06-19T06:48:11.271Z,1006.52
2016-06-19T06:49:11.306Z,1006.53
2016-06-19T06:50:11.356Z,1006.55
2016-06-19T06:51:11.390Z,1006.58
2016-06-19T06:52:11.457Z,1006.6
2016-06-19T06:53:11.491Z,1006.6
2016-06-19T06:54:11.526Z,1006.63
2016-06-19T06:55:11.576Z,1006.57
2016-06-19T06:56:11.611Z,1006.59
2016-06-19T06:57:11.661Z,1006.59
2016-06-19T06:58:11.696Z,1006.61
2016-06-19T06:59:11.746Z,1006.59
2016-06-19T07:00:11.781Z,1006.62
2016-06-19T07:01:11.831Z,1006.64
2016-06-19T07:02:11.881Z,1006.68
2016-06-19T07:03:11.916Z,1006.66
2016-06-19T07:04:11.951Z,1006.71
2016-06-19T07:05:12.002Z,1006.7
2016-06-19T07:06:12.036Z,1006.72
2016-06-19T07:07:12.087Z,1006.72
2016-06-19T07:08:12.138Z,1006.75
2016-06-19T07:09:12.171Z,1006.76
2016-06-19T07:10:12.206Z,1006.72
2016-06-19T07:11:12.256Z,1006.72
2016-06-19T07:12:12.291Z,1006.74
2016-06-19T07:13:12.342Z,1006.78
2016-06-19T07:14:12.408Z,1006.77
2016-06-19T07:15:12.426Z,1006.74
2016-06-19T07:16:12.460Z,1006.78
2016-06-19T07:17:12.511Z,1006.76
2016-06-19T07:18:12.562Z,1006.77
2016-06-19T07:19:12.596Z,1006.8
2016-06-19T07:20:12.632Z,1006.81
2016-06-19T07:21:12.683Z,1006.84
2016-06-19T07:22:12.731Z,1006.87
2016-06-19T07:23:12.767Z,1006.87
2016-06-19T07:24:12.817Z,1006.85
2016-06-19T07:25:12.883Z,1006.86
2016-06-19T07:26:12.902Z,1006.86
2016-06-19T07:27:12.937Z,1006.86
2016-06-19T07:28:13.035Z,1006.83
2016-06-19T07:29:13.037Z,1006.82
2016-06-19T07:30:13.072Z,1006.85
2016-06-19T07:31:13.107Z,1006.8
2016-06-19T07:32:13.157Z,1006.86
2016-06-19T07:33:13.208Z,1006.83
2016-06-19T07:34:13.242Z,1006.81
2016-06-19T07:35:13.277Z,1006.83
2016-06-19T07:36:13.327Z,1006.87
2016-06-19T07:37:13.362Z,1006.9
2016-06-19T07:38:13.412Z,1006.84
2016-06-19T07:39:13.462Z,1006.84
2016-06-19T07:40:13.498Z,1006.8
2016-06-19T07:41:13.547Z,1006.84
2016-06-19T07:42:13.583Z,1006.84
2016-06-19T07:43:13.633Z,1006.89
2016-06-19T07:44:13.667Z,1006.91
2016-06-19T07:45:13.718Z,1006.91
2016-06-19T07:46:13.753Z,1006.86
2016-06-19T07:47:13.803Z,1006.86
2016-06-19T07:48:13.869Z,1006.86
2016-06-19T07:49:13.888Z,1006.84
2016-06-19T07:50:13.922Z,1006.88
2016-06-19T07:51:13.972Z,1006.83
2016-06-19T07:52:14.039Z,1006.85
2016-06-19T07:53:14.058Z,1006.84
2016-06-19T07:54:14.092Z,1006.87
2016-06-19T07:55:14.143Z,1006.9
2016-06-19T07:56:14.178Z,1006.86
2016-06-19T07:57:14.228Z,1006.91
2016-06-19T07:58:14.278Z,1006.89
2016-06-19T07:59:14.314Z,1006.87
2016-06-19T08:00:14.363Z,1006.86
2016-06-19T08:01:14.398Z,1006.9
2016-06-19T08:02:14.449Z,1006.86
2016-06-19T08:03:14.483Z,1006.86
2016-06-19T08:04:14.534Z,1006.86
2016-06-19T08:05:14.568Z,1006.83
2016-06-19T08:06:14.619Z,1006.83
2016-06-19T08:07:14.670Z,1006.81
2016-06-19T08:08:14.703Z,1006.84
2016-06-19T08:09:14.755Z,1006.88
2016-06-19T08:10:14.788Z,1006.88
2016-06-19T08:11:14.839Z,1006.89
2016-06-19T08:12:14.873Z,1006.87
2016-06-19T08:13:14.924Z,1006.84
2016-06-19T08:14:14.959Z,1006.86
2016-06-19T08:15:15.025Z,1006.88
2016-06-19T08:16:15.060Z,1006.86
2016-06-19T08:17:15.093Z,1006.88
2016-06-19T08:18:15.144Z,1006.9
2016-06-19T08:19:15.195Z,1006.93
2016-06-19T08:20:15.229Z,1006.93
2016-06-19T08:21:15.265Z,1006.91
2016-06-19T08:22:15.314Z,1006.91
2016-06-19T08:23:15.350Z,1006.93
2016-06-19T08:24:15.400Z,1006.94
2016-06-19T08:25:15.449Z,1006.98
2016-06-19T08:26:15.485Z,1006.97
2016-06-19T08:27:15.581Z,1006.93
2016-06-19T08:28:15.585Z,1007
2016-06-19T08:29:15.620Z,1006.98
2016-06-19T08:30:15.671Z,1006.97
2016-06-19T08:31:15.705Z,1006.99
2016-06-19T08:32:15.756Z,1006.98
2016-06-19T08:33:15.806Z,1006.98
2016-06-19T08:34:15.841Z,1006.98
2016-06-19T08:35:15.891Z,1006.97
2016-06-19T08:36:15.925Z,1006.94
2016-06-19T08:37:15.976Z,1006.97
2016-06-19T08:38:16.057Z,1006.99
2016-06-19T08:39:16.061Z,1007
2016-06-19T08:40:16.127Z,1006.98
2016-06-19T08:41:16.146Z,1007.08
2016-06-19T08:42:16.196Z,1007.09
2016-06-19T08:43:16.230Z,1007.19
2016-06-19T08:44:16.283Z,1007.18
2016-06-19T08:45:16.337Z,1007.15
2016-06-19T08:46:16.374Z,1007.18
2016-06-19T08:47:16.427Z,1007.2
2016-06-19T08:48:16.480Z,1007.2
2016-06-19T08:49:16.532Z,1007.23
2016-06-19T08:50:16.567Z,1007.21
2016-06-19T08:51:16.619Z,1007.24
2016-06-19T08:52:16.654Z,1007.2
2016-06-19T08:53:16.706Z,1007.22
2016-06-19T08:54:16.757Z,1007.23
2016-06-19T08:55:16.792Z,1007.25
2016-06-19T08:56:16.843Z,1007.3
2016-06-19T08:57:16.877Z,1007.21
2016-06-19T08:58:16.929Z,1007.22
2016-06-19T08:59:16.979Z,1007.27
2016-06-19T09:00:17.014Z,1007.26
2016-06-19T09:01:17.064Z,1007.32
2016-06-19T09:02:17.099Z,1007.32
2016-06-19T09:03:17.165Z,1007.34
2016-06-19T09:04:17.230Z,1007.32
2016-06-19T09:05:17.234Z,1007.35
2016-06-19T09:06:17.284Z,1007.31
2016-06-19T09:07:17.335Z,1007.34
2016-06-19T09:08:17.369Z,1007.37
2016-06-19T09:09:17.420Z,1007.43
2016-06-19T09:10:17.470Z,1007.39
2016-06-19T09:11:17.504Z,1007.38
2016-06-19T09:12:17.555Z,1007.39
2016-06-19T09:13:17.590Z,1007.34
2016-06-19T09:14:17.640Z,1007.41
2016-06-19T09:15:17.690Z,1007.37
2016-06-19T09:16:17.726Z,1007.4
2016-06-19T09:17:17.776Z,1007.39
2016-06-19T09:18:17.826Z,1007.35
2016-06-19T09:19:17.862Z,1007.39
2016-06-19T09:20:17.911Z,1007.4
2016-06-19T09:21:17.962Z,1007.4
2016-06-19T09:22:17.996Z,1007.41
2016-06-19T09:23:18.046Z,1007.41
2016-06-19T09:24:18.128Z,1007.41
2016-06-19T09:25:18.132Z,1007.41
2016-06-19T09:26:18.182Z,1007.39
2016-06-19T09:27:18.232Z,1007.43
2016-06-19T09:28:18.283Z,1007.4
2016-06-19T09:29:18.316Z,1007.39
2016-06-19T09:30:18.367Z,1007.42
2016-06-19T09:31:18.418Z,1007.38
2016-06-19T09:32:18.453Z,1007.36
2016-06-19T09:33:18.503Z,1007.42
2016-06-19T09:34:18.539Z,1007.37
2016-06-19T09:35:18.587Z,1007.41
2016-06-19T09:36:18.623Z,1007.39
2016-06-19T09:37:18.673Z,1007.41
2016-06-19T09:38:18.723Z,1007.42
2016-06-19T09:39:18.759Z,1007.39
2016-06-19T09:40:18.808Z,1007.38
2016-06-19T09:41:18.858Z,1007.38
2016-06-19T09:42:18.894Z,1007.38
2016-06-19T09:43:18.944Z,1007.38
2016-06-19T09:44:18.994Z,1007.39
2016-06-19T09:45:19.044Z,1007.41
2016-06-19T09:46:19.080Z,1007.4
2016-06-19T09:47:19.145Z,1007.43
2016-06-19T09:48:19.179Z,1007.45
2016-06-19T09:49:19.215Z,1007.48
2016-06-19T09:50:19.264Z,1007.43
2016-06-19T09:51:19.315Z,1007.41
2016-06-19T09:52:19.351Z,1007.41
2016-06-19T09:53:19.400Z,1007.43
2016-06-19T09:54:19.450Z,1007.41
2016-06-19T09:55:19.501Z,1007.42
2016-06-19T09:56:19.535Z,1007.42
2016-06-19T09:57:19.586Z,1007.42
2016-06-19T09:58:19.636Z,1007.35
2016-06-19T09:59:19.671Z,1007.36
2016-06-19T10:00:19.721Z,1007.39
2016-06-19T10:01:19.771Z,1007.38
2016-06-19T10:02:19.822Z,1007.42
2016-06-19T10:03:19.857Z,1007.41
2016-06-19T10:04:19.907Z,1007.41
2016-06-19T10:05:19.957Z,1007.47
2016-06-19T10:06:20.039Z,1007.45
2016-06-19T10:07:20.042Z,1007.47
2016-06-19T10:08:20.093Z,1007.44
2016-06-19T10:09:20.143Z,1007.48
2016-06-19T10:10:20.178Z,1007.48
2016-06-19T10:11:20.228Z,1007.45
2016-06-19T10:12:20.278Z,1007.46
2016-06-19T10:13:20.313Z,1007.49
2016-06-19T10:14:20.363Z,1007.49
2016-06-19T10:15:20.414Z,1007.53
2016-06-19T10:16:20.448Z,1007.48
2016-06-19T10:17:20.530Z,1007.53
2016-06-19T10:18:20.549Z,1007.52
2016-06-19T10:19:20.584Z,1007.49
2016-06-19T10:20:20.634Z,1007.48
2016-06-19T10:21:20.685Z,1007.46
2016-06-19T10:22:20.735Z,1007.5
2016-06-19T10:23:20.770Z,1007.49
2016-06-19T10:24:20.820Z,1007.48
2016-06-19T10:25:20.870Z,1007.49
2016-06-19T10:26:20.921Z,1007.54
2016-06-19T10:27:20.955Z,1007.48
2016-06-19T10:28:21.068Z,1007.48
2016-06-19T10:29:21.056Z,1007.5
2016-06-19T10:30:21.091Z,1007.5
2016-06-19T10:31:21.173Z,1007.49
2016-06-19T10:32:21.192Z,1007.5
2016-06-19T10:33:21.243Z,1007.49
2016-06-19T10:34:21.277Z,1007.48
2016-06-19T10:35:21.327Z,1007.45
2016-06-19T10:36:21.378Z,1007.42
2016-06-19T10:37:21.412Z,1007.43
2016-06-19T10:38:21.462Z,1007.42
2016-06-19T10:39:21.513Z,1007.38
2016-06-19T10:40:21.562Z,1007.37
2016-06-19T10:41:21.598Z,1007.33
2016-06-19T10:42:21.649Z,1007.39
2016-06-19T10:43:21.698Z,1007.41
2016-06-19T10:44:21.765Z,1007.39
2016-06-19T10:45:21.783Z,1007.41
2016-06-19T10:46:21.833Z,1007.48
2016-06-19T10:47:21.883Z,1007.68
2016-06-19T10:48:21.950Z,1007.86
2016-06-19T10:49:21.969Z,1007.58
2016-06-19T10:50:22.035Z,1007.36
2016-06-19T10:51:22.070Z,1007.31
2016-06-19T10:52:22.119Z,1007.33
2016-06-19T10:53:22.155Z,1007.32
2016-06-19T10:54:22.205Z,1007.33
2016-06-19T10:55:22.255Z,1007.29
2016-06-19T10:56:22.305Z,1007.3
2016-06-19T10:57:22.371Z,1007.28
2016-06-19T10:58:22.391Z,1007.24
2016-06-19T10:59:22.441Z,1007.31
2016-06-19T11:00:22.492Z,1007.3
2016-06-19T11:01:22.544Z,1007.31
2016-06-19T11:02:22.596Z,1007.33
2016-06-19T11:03:22.632Z,1007.29
2016-06-19T11:04:22.715Z,1007.32
2016-06-19T11:05:22.735Z,1007.36
2016-06-19T11:06:22.770Z,1007.34
2016-06-19T11:07:22.821Z,1007.34
2016-06-19T11:08:22.872Z,1007.41
2016-06-19T11:09:22.922Z,1007.82
2016-06-19T11:10:22.973Z,1007.89
2016-06-19T11:11:23.009Z,1007.9
2016-06-19T11:12:23.059Z,1007.76
2016-06-19T11:13:23.109Z,1007.93
2016-06-19T11:14:23.161Z,1007.87
2016-06-19T11:15:23.242Z,1007.47
2016-06-19T11:16:23.261Z,1007.94
2016-06-19T11:17:23.312Z,1007.5
2016-06-19T11:18:23.377Z,1007.41
2016-06-19T11:19:23.413Z,1007.44
2016-06-19T11:20:23.462Z,1007.45
2016-06-19T11:21:23.545Z,1007.68
2016-06-19T11:22:23.563Z,1007.36
2016-06-19T11:23:23.614Z,1007.83
2016-06-19T11:24:23.680Z,1007.79
2016-06-19T11:25:23.729Z,1007.8
2016-06-19T11:26:23.780Z,1007.81
2016-06-19T11:27:23.831Z,1007.86
2016-06-19T11:28:23.881Z,1007.78
2016-06-19T11:29:23.962Z,1007.79
2016-06-19T11:30:23.997Z,1007.78
2016-06-19T11:31:24.063Z,1007.78
2016-06-19T11:32:24.114Z,1007.75
2016-06-19T11:33:24.164Z,1007.86
2016-06-19T11:34:24.229Z,1007.88
2016-06-19T11:35:24.280Z,1007.98
2016-06-19T11:36:24.346Z,1008.21
2016-06-19T11:37:24.396Z,1007.7
2016-06-19T11:38:24.462Z,1007.34
2016-06-19T11:39:24.560Z,1007.33
2016-06-19T11:40:24.578Z,1008.34
2016-06-19T11:41:24.644Z,1007.26
2016-06-19T11:42:24.696Z,1007.22
2016-06-19T11:43:24.761Z,1007.19
2016-06-19T11:44:24.811Z,1007.32
2016-06-19T11:45:24.878Z,1007.36
2016-06-19T11:46:24.927Z,1008.1
2016-06-19T11:47:24.994Z,1008.03
2016-06-19T11:48:25.044Z,1008.09
2016-06-19T11:49:25.109Z,1008.08
2016-06-19T11:50:25.160Z,1008.05
2016-06-19T11:51:25.226Z,1008.08
2016-06-19T11:52:25.276Z,1008.14
2016-06-19T11:53:25.390Z,1007.86
2016-06-19T11:54:25.409Z,1007.2
2016-06-19T11:55:25.459Z,1007.28
2016-06-19T11:56:25.525Z,1008.17
2016-06-19T11:57:25.591Z,1008.13
2016-06-19T11:58:25.656Z,1008.08
2016-06-19T11:59:25.707Z,1008.1
2016-06-19T12:00:25.773Z,1008.13
2016-06-19T12:01:25.823Z,1007.83
2016-06-19T12:02:25.889Z,1007.21
2016-06-19T12:03:25.955Z,1007.13
2016-06-19T12:04:26.006Z,1007.09
2016-06-19T12:05:26.072Z,1007.1
2016-06-19T12:06:26.137Z,1007.2
2016-06-19T12:07:26.219Z,1007.39
2016-06-19T12:08:26.254Z,1008.06
2016-06-19T12:09:26.303Z,1007.56